EST,Max TemperatureF,Mean TemperatureF,Min TemperatureF,Max Dew PointF,MeanDew PointF,Min DewpointF,Max Humidity, Mean Humidity, Min Humidity, Max Sea Level PressureIn, Mean Sea Level PressureIn, Min Sea Level PressureIn, Max VisibilityMiles, Mean VisibilityMiles, Min VisibilityMiles, Max Wind SpeedMPH, Mean Wind SpeedMPH, Max Gust SpeedMPH,PrecipitationIn, CloudCover, Events, WindDirDegrees
2012-12-1,78,66,53,61,57,52,100,78,44,30.27,30.23,30.20,10,9,3,18,5,22,0.00,1,,38
2012-12-2,78,68,59,63,59,55,100,75,44,30.30,30.25,30.20,10,9,5,14,6,17,0.00,2,,56
2012-12-3,80,70,60,64,59,52,100,74,39,30.30,30.25,30.21,10,9,7,12,5,,0.00,3,,59
2012-12-4,75,63,51,61,55,50,100,75,41,30.31,30.25,30.21,10,9,5,12,5,,0.00,1,,62
2012-12-5,78,66,55,63,58,52,100,75,44,30.21,30.13,30.06,10,10,7,13,3,,0.00,5,,56
2012-12-6,78,69,60,63,60,55,100,74,50,30.07,30.01,29.95,10,10,8,12,6,16,0.00,1,,59
2012-12-7,75,68,60,64,62,61,100,86,61,30.05,29.99,29.95,10,8,0,7,4,,0.00,4,Fog,35
2012-12-8,78,70,62,68,65,63,100,79,57,30.08,30.03,29.99,10,5,0,9,3,,0.07,6,Fog-Rain,70
2012-12-9,78,70,62,68,65,63,100,79,57,30.12,30.06,30.03,10,6,0,7,2,,0.00,4,Fog,287
2012-12-10,82,70,59,73,68,59,100,87,58,30.05,29.96,29.87,10,6,0,18,5,24,0.07,5,Fog-Rain-Thunderstorm,188
2012-12-11,78,72,66,73,69,66,100,91,73,30.05,29.98,29.92,10,7,1,10,3,,0.01,3,Rain-Thunderstorm,210
2012-12-12,80,73,66,73,70,66,100,91,69,30.11,30.06,30.02,10,8,2,12,5,,0.26,5,Rain-Thunderstorm,172
2012-12-13,69,62,55,70,59,52,100,90,77,30.21,30.15,30.07,10,7,0,15,7,21,0.00,8,Fog,353
2012-12-14,69,62,55,57,56,52,100,85,64,30.25,30.18,30.13,10,8,5,14,10,20,0.00,4,,14
2012-12-15,77,66,55,63,59,55,100,85,50,30.18,30.11,30.07,10,6,0,9,4,,0.00,3,Fog-Rain,55
2012-12-16,78,66,53,64,60,54,100,83,50,30.09,30.03,29.97,10,8,0,8,1,,0.00,2,Fog,165
2012-12-17,80,68,57,64,61,57,100,82,47,30.01,29.95,29.89,10,8,0,17,3,20,0.00,1,Fog,210
2012-12-18,78,66,55,72,59,48,100,71,42,30.06,29.97,29.91,10,7,0,15,8,23,0.00,3,Fog-Rain,261
2012-12-19,75,60,44,52,46,39,100,67,27,30.14,30.09,30.05,10,10,8,8,2,,0.00,0,,54
2012-12-20,80,64,48,64,58,46,100,78,48,30.12,30.04,29.95,10,8,3,15,5,21,0.00,1,,172
2012-12-21,69,58,46,70,39,28,100,57,31,30.23,30.13,29.97,10,9,4,23,13,28,0.04,1,Rain,303
2012-12-22,60,48,37,34,24,14,81,44,17,30.32,30.26,30.22,10,10,9,15,7,22,0.00,0,,325
2012-12-23,66,49,32,45,35,27,100,65,31,30.30,30.23,30.17,10,10,7,6,1,,0.00,0,,238
2012-12-24,68,57,46,57,50,43,100,80,52,30.17,30.09,30.00,10,9,8,15,2,,0.00,0,,186
2012-12-25,73,60,48,57,55,48,100,79,50,30.06,29.99,29.92,10,8,0,13,3,17,0.00,1,Fog,140
2012-12-26,78,66,50,66,58,46,100,82,57,30.03,29.90,29.81,10,8,2,26,8,37,0.51,3,Rain-Thunderstorm,233
2012-12-27,62,50,39,46,38,34,100,67,36,30.13,30.07,30.02,10,10,5,8,5,,0.00,0,Thunderstorm,322
2012-12-28,71,53,35,64,48,34,100,81,40,30.13,30.05,29.97,10,8,2,8,2,,0.10,3,Rain,115
2012-12-29,75,64,53,72,61,46,100,85,59,30.17,30.00,29.90,10,7,2,20,11,29,0.05,4,Rain,244
2012-12-30,53,46,39,46,38,32,82,66,44,30.38,30.32,30.17,10,10,8,14,9,21,0.00,1,,14
2012-12-31,73,58,42,54,49,43,100,77,47,30.36,30.29,30.22,10,9,6,14,6,17,0.00,0,,84